createdAt,value
2023-01-19T00:00:20.490Z,5.90
2023-01-19T00:03:41.899Z,5.80
2023-01-19T00:06:43.320Z,5.70
2023-01-19T00:09:44.718Z,5.50
2023-01-19T00:12:46.253Z,5.30
2023-01-19T00:15:47.617Z,4.60
2023-01-19T00:18:51.202Z,5.00
2023-01-19T00:21:52.602Z,5.50
2023-01-19T00:24:54.061Z,5.10
2023-01-19T00:27:57.056Z,4.50
2023-01-19T00:30:59.176Z,3.80
2023-01-19T00:34:00.547Z,5.40
2023-01-19T00:37:03.604Z,6.50
2023-01-19T00:40:05.819Z,4.60
2023-01-19T00:43:07.270Z,4.80
2023-01-19T00:46:08.861Z,4.40
2023-01-19T00:49:10.586Z,4.90
2023-01-19T00:52:11.911Z,4.30
2023-01-19T00:55:15.365Z,4.90
2023-01-19T00:58:16.823Z,4.50
2023-01-19T01:01:18.677Z,4.70
2023-01-19T01:04:20.120Z,4.50
2023-01-19T01:07:22.814Z,5.00
2023-01-19T01:10:27.133Z,5.20
2023-01-19T01:16:30.737Z,4.20
2023-01-19T01:19:33.645Z,4.20
2023-01-19T01:22:34.989Z,4.60
2023-01-19T01:25:37.945Z,4.90
2023-01-19T01:28:39.334Z,4.70
2023-01-19T01:31:41.180Z,4.40
2023-01-19T01:34:43.220Z,3.70
2023-01-19T01:37:44.668Z,3.50
2023-01-19T01:40:46.113Z,4.30
2023-01-19T01:43:54.230Z,4.80
2023-01-19T01:46:56.171Z,3.70
2023-01-19T01:50:21.638Z,4.00
2023-01-19T01:53:23.102Z,4.40
2023-01-19T01:56:32.097Z,4.60
2023-01-19T01:59:39.588Z,4.60
2023-01-19T02:02:50.742Z,3.60
2023-01-19T02:05:58.587Z,3.80
2023-01-19T02:09:28.455Z,4.00
2023-01-19T02:12:48.489Z,3.80
2023-01-19T02:15:57.126Z,4.00
2023-01-19T02:19:00.418Z,3.80
2023-01-19T02:22:17.744Z,3.30
2023-01-19T02:25:19.769Z,3.60
2023-01-19T02:28:21.313Z,3.90
2023-01-19T02:31:23.587Z,3.40
2023-01-19T02:34:25.649Z,2.60
2023-01-19T02:37:30.348Z,2.80
2023-01-19T02:40:32.497Z,2.60
2023-01-19T02:43:34.965Z,2.60
2023-01-19T02:46:37.811Z,3.00
2023-01-19T02:49:39.542Z,3.50
2023-01-19T02:52:40.884Z,3.30
2023-01-19T02:55:55.919Z,3.20
2023-01-19T02:59:15.086Z,2.80
2023-01-19T03:02:41.605Z,3.10
2023-01-19T03:06:05.132Z,3.30
2023-01-19T03:09:57.096Z,3.00
2023-01-19T03:13:10.493Z,3.00
2023-01-19T03:16:21.735Z,2.10
2023-01-19T03:19:27.076Z,1.90
2023-01-19T03:22:29.130Z,1.90
2023-01-19T03:25:34.603Z,1.40
2023-01-19T03:28:40.566Z,2.00
2023-01-19T03:31:46.765Z,1.60
2023-01-19T03:34:50.226Z,2.20
2023-01-19T03:37:57.439Z,1.90
2023-01-19T03:41:04.356Z,1.80
2023-01-19T03:44:07.058Z,1.90
2023-01-19T03:47:11.176Z,1.60
2023-01-19T03:50:23.924Z,1.70
2023-01-19T03:53:25.282Z,1.60
2023-01-19T03:56:26.696Z,3.40
2023-01-19T03:59:28.182Z,2.40
2023-01-19T04:02:29.625Z,2.70
2023-01-19T04:05:32.242Z,4.00
2023-01-19T04:08:33.662Z,3.50
2023-01-19T04:11:35.052Z,3.40
2023-01-19T04:14:36.615Z,3.20
2023-01-19T04:17:38.733Z,2.60
2023-01-19T04:20:52.090Z,2.50
2023-01-19T04:23:53.993Z,2.10
2023-01-19T04:26:55.339Z,2.00
2023-01-19T04:29:56.697Z,2.20
2023-01-19T04:32:59.182Z,2.60
2023-01-19T04:36:01.518Z,2.20
2023-01-19T04:39:03.065Z,1.60
2023-01-19T04:42:05.701Z,3.30
2023-01-19T04:45:07.821Z,3.40
2023-01-19T04:48:09.266Z,3.50
2023-01-19T04:51:11.262Z,3.90
2023-01-19T04:54:12.743Z,3.90
2023-01-19T04:57:14.315Z,2.60
2023-01-19T05:00:17.107Z,3.70
2023-01-19T05:03:19.247Z,2.90
2023-01-19T05:06:20.953Z,2.40
2023-01-19T05:09:22.370Z,1.80
2023-01-19T05:12:24.418Z,1.60
2023-01-19T05:15:25.772Z,1.70
2023-01-19T05:18:27.338Z,1.10
2023-01-19T05:21:29.096Z,1.10
2023-01-19T05:24:31.341Z,1.20
2023-01-19T05:27:32.648Z,1.30
2023-01-19T05:30:34.023Z,1.10
2023-01-19T05:33:35.445Z,1.00
2023-01-19T05:36:36.865Z,3.60
2023-01-19T05:39:38.232Z,3.60
2023-01-19T05:42:39.589Z,3.50
2023-01-19T05:45:41.093Z,3.30
2023-01-19T05:48:42.454Z,3.30
2023-01-19T05:51:44.777Z,2.40
2023-01-19T05:54:47.497Z,1.20
2023-01-19T05:57:49.360Z,0.80
2023-01-19T06:00:50.780Z,0.60
2023-01-19T06:03:52.379Z,0.40
2023-01-19T06:06:53.745Z,0.40
2023-01-19T06:09:55.135Z,0.40
2023-01-19T06:12:56.476Z,0.40
2023-01-19T06:16:02.119Z,0.40
2023-01-19T06:19:03.630Z,0.50
2023-01-19T06:22:05.433Z,0.40
2023-01-19T06:25:07.199Z,0.50
2023-01-19T06:28:08.569Z,0.60
2023-01-19T06:31:10.034Z,0.40
2023-01-19T06:34:11.663Z,0.40
2023-01-19T06:37:15.414Z,0.50
2023-01-19T06:40:17.041Z,0.50
2023-01-19T06:43:19.702Z,0.40
2023-01-19T06:46:21.327Z,0.50
2023-01-19T06:49:22.750Z,0.60
2023-01-19T06:52:24.295Z,0.60
2023-01-19T06:55:27.943Z,0.80
2023-01-19T06:58:30.467Z,1.00
2023-01-19T07:01:32.133Z,1.00
2023-01-19T07:04:34.836Z,1.50
2023-01-19T07:07:39.047Z,1.40
2023-01-19T07:11:24.564Z,1.30
2023-01-19T07:14:02.822Z,0.90
2023-01-19T07:17:04.237Z,1.10
2023-01-19T07:20:06.644Z,1.00
2023-01-19T07:23:08.716Z,1.10
2023-01-19T07:26:10.136Z,1.20
2023-01-19T07:29:11.499Z,0.80
2023-01-19T07:32:12.829Z,0.90
2023-01-19T07:35:14.950Z,0.80
2023-01-19T07:38:17.919Z,0.80
2023-01-19T07:41:19.275Z,0.70
2023-01-19T07:44:20.713Z,0.60
2023-01-19T07:47:22.123Z,0.60
2023-01-19T07:50:28.535Z,0.80
2023-01-19T07:53:30.148Z,2.40
2023-01-19T07:56:33.618Z,4.00
2023-01-19T07:59:35.210Z,13.20
2023-01-19T08:02:37.333Z,5.60
2023-01-19T08:05:39.106Z,9.90
2023-01-19T08:08:40.873Z,8.40
2023-01-19T08:11:42.254Z,15.70
2023-01-19T08:14:43.623Z,13.50
2023-01-19T08:17:45.057Z,4.90
2023-01-19T08:20:46.518Z,4.80
2023-01-19T08:23:55.263Z,5.20
2023-01-19T08:27:01.439Z,4.50
2023-01-19T08:30:03.268Z,4.20
2023-01-19T08:33:07.458Z,3.00
2023-01-19T08:36:08.974Z,2.80
2023-01-19T08:39:11.626Z,2.60
2023-01-19T08:42:13.040Z,2.50
2023-01-19T08:45:14.420Z,1.70
2023-01-19T08:48:18.335Z,1.50
2023-01-19T08:51:19.960Z,1.30
2023-01-19T08:54:22.537Z,1.20
2023-01-19T08:57:23.958Z,1.10
2023-01-19T09:00:26.530Z,0.90
2023-01-19T09:03:27.958Z,0.90
2023-01-19T09:06:29.489Z,0.70
2023-01-19T09:09:30.906Z,0.70
2023-01-19T09:12:32.254Z,0.90
2023-01-19T09:15:36.782Z,0.60
2023-01-19T09:18:38.926Z,0.80
2023-01-19T09:21:40.314Z,0.90
2023-01-19T09:24:41.641Z,0.70
2023-01-19T09:27:43.046Z,0.70
2023-01-19T09:30:44.640Z,0.50
2023-01-19T09:33:46.137Z,0.80
2023-01-19T09:36:47.804Z,0.60
2023-01-19T09:39:49.167Z,0.60
2023-01-19T09:43:15.992Z,0.70
2023-01-19T09:46:38.032Z,0.90
2023-01-19T09:49:44.962Z,0.90
2023-01-19T09:52:56.927Z,1.10
2023-01-19T09:55:58.423Z,1.00
2023-01-19T09:59:01.186Z,2.50
2023-01-19T10:02:10.335Z,2.80
2023-01-19T10:05:24.871Z,3.50
2023-01-19T10:08:51.965Z,3.50
2023-01-19T10:12:16.136Z,3.70
2023-01-19T10:15:37.066Z,2.70
2023-01-19T10:18:45.270Z,4.50
2023-01-19T10:21:49.527Z,4.50
2023-01-19T10:27:58.867Z,4.30
2023-01-19T10:31:00.621Z,3.90
2023-01-19T10:34:03.231Z,4.00
2023-01-19T10:37:16.581Z,4.00
2023-01-19T10:40:42.367Z,3.90
2023-01-19T10:43:45.661Z,3.60
2023-01-19T10:46:49.342Z,4.90
2023-01-19T10:49:51.504Z,3.80
2023-01-19T10:52:58.737Z,3.80
2023-01-19T10:56:17.058Z,3.40
2023-01-19T10:59:36.809Z,2.80
2023-01-19T11:02:50.080Z,3.40
2023-01-19T11:05:51.503Z,2.80
2023-01-19T11:09:08.779Z,9.00
2023-01-19T11:12:40.279Z,6.70
2023-01-19T11:15:52.573Z,4.80
2023-01-19T11:18:56.479Z,4.60
2023-01-19T11:22:14.686Z,5.70
2023-01-19T11:25:30.282Z,4.70
2023-01-19T11:28:42.991Z,10.20
2023-01-19T11:31:46.864Z,4.50
2023-01-19T11:34:49.733Z,3.80
2023-01-19T11:38:05.565Z,3.80
2023-01-19T11:41:16.120Z,10.20
2023-01-19T11:44:25.598Z,10.30
2023-01-19T11:47:35.165Z,14.90
2023-01-19T11:50:44.493Z,6.40
2023-01-19T11:53:50.803Z,15.00
2023-01-19T11:56:55.234Z,18.40
2023-01-19T12:03:32.423Z,35.80
2023-01-19T12:06:38.602Z,14.60
2023-01-19T12:09:46.716Z,18.10
2023-01-19T12:12:49.136Z,11.70
2023-01-19T12:15:57.205Z,9.50
2023-01-19T12:19:15.236Z,16.60
2023-01-19T12:22:18.309Z,25.10
2023-01-19T12:25:24.115Z,24.70
2023-01-19T12:28:32.197Z,23.10
2023-01-19T12:31:34.458Z,17.10
2023-01-19T12:34:45.931Z,31.20
2023-01-19T12:37:47.742Z,21.80
2023-01-19T12:40:49.194Z,26.30
2023-01-19T12:44:21.561Z,36.90
2023-01-19T12:47:23.718Z,36.10
2023-01-19T12:50:26.052Z,28.40
2023-01-19T12:53:29.974Z,27.10
2023-01-19T12:56:34.906Z,58.40
2023-01-19T12:59:38.503Z,45.30
2023-01-19T13:02:46.101Z,38.10
2023-01-19T13:05:55.536Z,26.30
2023-01-19T13:08:59.980Z,50.20
2023-01-19T13:12:13.803Z,43.20
2023-01-19T13:15:35.221Z,40.70
2023-01-19T13:18:40.918Z,22.90
2023-01-19T13:21:47.627Z,29.50
2023-01-19T13:25:09.737Z,29.70
2023-01-19T13:28:15.486Z,26.70
2023-01-19T13:31:18.641Z,26.70
2023-01-19T13:34:22.895Z,23.50
2023-01-19T13:37:43.808Z,21.90
2023-01-19T13:40:45.650Z,18.60
2023-01-19T13:43:52.030Z,26.00
2023-01-19T13:46:55.755Z,25.60
2023-01-19T13:49:58.410Z,21.10
2023-01-19T13:53:00.838Z,22.70
2023-01-19T13:56:16.478Z,32.10
2023-01-19T13:59:17.902Z,46.20
2023-01-19T14:02:20.697Z,44.40
2023-01-19T14:05:32.810Z,39.60
2023-01-19T14:08:34.270Z,23.00
2023-01-19T14:11:36.150Z,22.90
2023-01-19T14:14:37.951Z,23.90
2023-01-19T14:17:41.405Z,24.30
2023-01-19T14:21:06.839Z,22.10
2023-01-19T14:24:19.511Z,21.10
2023-01-19T14:27:24.287Z,22.80
2023-01-19T14:30:26.228Z,23.10
2023-01-19T14:33:46.320Z,24.40
2023-01-19T14:36:50.966Z,22.80
2023-01-19T14:39:57.847Z,20.50
2023-01-19T14:43:05.065Z,19.20
2023-01-19T14:46:06.522Z,19.30
2023-01-19T14:49:20.570Z,18.90
2023-01-19T14:52:30.599Z,18.00
2023-01-19T14:55:50.002Z,16.90
2023-01-19T14:58:51.566Z,18.80
2023-01-19T15:01:53.147Z,21.60
2023-01-19T15:04:57.050Z,20.30
2023-01-19T15:07:58.533Z,18.00
2023-01-19T15:11:10.117Z,22.40
2023-01-19T15:14:13.882Z,20.40
2023-01-19T15:17:24.513Z,18.50
2023-01-19T15:20:26.018Z,16.10
2023-01-19T15:23:28.931Z,15.40
2023-01-19T15:26:30.399Z,12.90
2023-01-19T15:29:32.362Z,13.00
2023-01-19T15:32:33.816Z,13.90
2023-01-19T15:35:35.200Z,13.90
2023-01-19T15:38:36.538Z,13.10
2023-01-19T15:41:39.489Z,10.90
2023-01-19T15:44:40.907Z,12.40
2023-01-19T15:47:42.385Z,11.20
2023-01-19T15:50:44.739Z,11.90
2023-01-19T15:53:47.721Z,11.70
2023-01-19T15:56:50.257Z,11.30
2023-01-19T15:59:52.756Z,10.20
2023-01-19T16:02:54.385Z,9.40
2023-01-19T16:05:59.811Z,9.50
2023-01-19T16:09:03.141Z,7.80
2023-01-19T16:12:04.744Z,7.00
2023-01-19T16:15:06.607Z,36.20
2023-01-19T16:18:08.022Z,44.70
2023-01-19T16:21:09.609Z,11.10
2023-01-19T16:24:11.106Z,9.00
2023-01-19T16:27:12.504Z,41.80
2023-01-19T16:30:15.658Z,33.40
2023-01-19T16:33:17.044Z,23.70
2023-01-19T16:36:24.721Z,8.30
2023-01-19T16:39:26.039Z,11.60
2023-01-19T16:42:27.456Z,9.80
2023-01-19T16:45:28.825Z,9.60
2023-01-19T16:48:31.567Z,7.50
2023-01-19T16:51:33.129Z,7.80
2023-01-19T16:54:34.577Z,6.90
2023-01-19T16:57:40.667Z,7.20
2023-01-19T17:00:42.127Z,6.60
2023-01-19T17:03:44.094Z,5.20
2023-01-19T17:06:49.453Z,7.90
2023-01-19T17:09:51.867Z,7.60
2023-01-19T17:12:53.373Z,5.50
2023-01-19T17:16:00.166Z,4.30
2023-01-19T17:19:04.155Z,4.40
2023-01-19T17:22:05.871Z,4.20
2023-01-19T17:25:07.673Z,8.90
2023-01-19T17:28:09.091Z,5.60
2023-01-19T17:31:13.218Z,6.10
2023-01-19T17:34:14.678Z,7.00
2023-01-19T17:37:16.105Z,6.50
2023-01-19T17:40:17.657Z,6.40
2023-01-19T17:43:19.007Z,6.90
2023-01-19T17:46:23.814Z,6.50
2023-01-19T17:49:25.276Z,6.60
2023-01-19T17:52:26.797Z,4.80
2023-01-19T17:55:28.227Z,4.60
2023-01-19T17:58:30.886Z,4.00
2023-01-19T18:01:33.070Z,46.00
2023-01-19T18:04:37.565Z,150.80
2023-01-19T18:10:41.705Z,56.20
2023-01-19T18:13:44.708Z,22.20
2023-01-19T18:16:46.326Z,24.20
2023-01-19T18:19:48.440Z,43.30
2023-01-19T18:22:50.512Z,18.50
2023-01-19T18:26:12.207Z,19.50
2023-01-19T18:29:15.938Z,19.50
2023-01-19T18:32:17.416Z,20.80
2023-01-19T18:35:18.858Z,22.80
2023-01-19T18:38:20.440Z,15.60
2023-01-19T18:41:21.873Z,15.70
2023-01-19T18:44:23.356Z,10.80
2023-01-19T18:47:24.747Z,11.80
2023-01-19T18:50:26.199Z,17.70
2023-01-19T18:53:27.549Z,17.30
2023-01-19T18:56:29.032Z,19.00
2023-01-19T18:59:30.385Z,16.90
2023-01-19T19:02:32.499Z,16.80
2023-01-19T19:05:34.017Z,16.50
2023-01-19T19:08:35.567Z,12.60
2023-01-19T19:11:37.015Z,8.80
2023-01-19T19:14:38.512Z,6.10
2023-01-19T19:17:39.902Z,4.80
2023-01-19T19:20:42.594Z,4.10
2023-01-19T19:23:53.185Z,4.30
2023-01-19T19:26:54.743Z,6.10
2023-01-19T19:29:56.146Z,11.80
2023-01-19T19:32:59.235Z,14.50
2023-01-19T19:36:01.099Z,11.30
2023-01-19T19:39:05.624Z,32.70
2023-01-19T19:42:07.114Z,32.20
2023-01-19T19:45:09.327Z,36.20
2023-01-19T19:48:10.702Z,21.60
2023-01-19T19:51:19.250Z,43.90
2023-01-19T19:54:21.017Z,34.80
2023-01-19T19:57:22.488Z,27.40
2023-01-19T20:00:23.978Z,25.70
2023-01-19T20:03:26.438Z,22.10
2023-01-19T20:06:27.864Z,31.80
2023-01-19T20:09:29.295Z,32.90
2023-01-19T20:12:30.686Z,14.90
2023-01-19T20:15:36.277Z,12.20
2023-01-19T20:18:39.711Z,32.30
2023-01-19T20:21:43.394Z,18.20
2023-01-19T20:24:44.803Z,12.80
2023-01-19T20:27:46.782Z,11.60
2023-01-19T20:30:48.185Z,10.30
2023-01-19T20:33:51.296Z,10.70
2023-01-19T20:36:53.261Z,8.70
2023-01-19T20:39:54.804Z,4.80
2023-01-19T20:42:56.148Z,5.10
2023-01-19T20:45:58.055Z,5.70
2023-01-19T20:48:59.422Z,8.90
2023-01-19T20:52:01.376Z,15.70
2023-01-19T20:55:03.243Z,16.30
2023-01-19T20:58:04.978Z,9.70
2023-01-19T21:01:21.006Z,8.10
2023-01-19T21:04:22.594Z,9.50
2023-01-19T21:07:24.042Z,9.10
2023-01-19T21:10:25.788Z,34.10
2023-01-19T21:13:27.439Z,25.10
2023-01-19T21:16:32.932Z,29.50
2023-01-19T21:19:34.492Z,15.20
2023-01-19T21:22:35.850Z,13.70
2023-01-19T21:25:37.653Z,13.80
2023-01-19T21:28:39.706Z,16.80
2023-01-19T21:31:41.501Z,32.30
2023-01-19T21:34:43.698Z,23.70
2023-01-19T21:37:45.143Z,19.80
2023-01-19T21:40:46.913Z,20.40
2023-01-19T21:43:48.254Z,11.70
2023-01-19T21:46:49.646Z,9.30
2023-01-19T21:49:50.958Z,8.50
2023-01-19T21:52:52.343Z,8.30
2023-01-19T21:55:53.890Z,8.50
2023-01-19T21:58:56.677Z,8.70
2023-01-19T22:01:58.607Z,7.80
2023-01-19T22:05:00.506Z,7.80
2023-01-19T22:08:01.998Z,8.20
2023-01-19T22:11:08.299Z,6.80
2023-01-19T22:14:10.799Z,8.20
2023-01-19T22:17:12.219Z,8.00
2023-01-19T22:20:13.635Z,8.10
2023-01-19T22:23:15.096Z,7.80
2023-01-19T22:26:17.365Z,8.40
2023-01-19T22:29:18.950Z,8.00
2023-01-19T22:32:20.359Z,10.80
2023-01-19T22:35:21.735Z,10.70
2023-01-19T22:38:23.096Z,10.60
2023-01-19T22:41:33.916Z,13.30
2023-01-19T22:44:35.426Z,11.50
2023-01-19T22:47:36.797Z,12.00
2023-01-19T22:50:38.095Z,12.70
2023-01-19T22:53:39.985Z,12.20
2023-01-19T22:56:42.207Z,12.40
2023-01-19T22:59:43.635Z,13.40
2023-01-19T23:02:45.000Z,14.30
2023-01-19T23:05:46.528Z,12.50
2023-01-19T23:08:47.949Z,11.50
2023-01-19T23:11:50.680Z,11.10
2023-01-19T23:14:52.094Z,10.20
2023-01-19T23:17:53.509Z,8.90
2023-01-19T23:20:55.111Z,10.60
2023-01-19T23:23:59.084Z,13.00
2023-01-19T23:27:01.574Z,19.80
2023-01-19T23:30:03.457Z,14.80
2023-01-19T23:33:04.833Z,18.10
2023-01-19T23:36:07.939Z,25.80
2023-01-19T23:39:19.979Z,30.10
2023-01-19T23:42:21.515Z,22.00
2023-01-19T23:45:23.009Z,24.40
2023-01-19T23:48:24.376Z,24.20
2023-01-19T23:51:28.064Z,19.20
2023-01-19T23:54:29.407Z,19.30
2023-01-19T23:57:30.758Z,20.40
